Time;durP1;ratioP1;P1;durP2;ratioP2;P2;SDS_P1;SDS_P2;PMS_P1;PMS_P2;Temp;Humidity;BMP_temperature;BMP_pressure;BME280_temperature;BME280_humidity;BME280_pressure;Samples;Min_cycle;Max_cycle;Signal;HPM_P1;HPM_P2
2023/11/21 00:00:49;;;;;;;0.50;0.50;;;8.90;99.90;;;;;;5122765;27;20180;-78
2023/11/21 00:03:15;;;;;;;0.30;0.20;;;8.90;99.90;;;;;;5106356;28;20405;-77
2023/11/21 00:05:41;;;;;;;0.40;0.30;;;8.80;99.90;;;;;;5106831;28;20172;-77
2023/11/21 00:08:07;;;;;;;0.30;0.20;;;8.80;99.90;;;;;;5123005;27;20192;-76
2023/11/21 00:10:33;;;;;;;0.30;0.20;;;8.80;99.90;;;;;;5106850;27;20207;-77
2023/11/21 00:12:59;;;;;;;0.30;0.20;;;8.80;99.90;;;;;;5107231;28;20521;-76
2023/11/21 00:15:26;;;;;;;0.30;0.20;;;8.80;99.90;;;;;;5122297;27;20428;-77
2023/11/21 00:17:51;;;;;;;0.30;0.20;;;8.80;99.90;;;;;;5107134;28;20747;-76
2023/11/21 00:20:17;;;;;;;0.30;0.20;;;8.80;99.90;;;;;;5106777;28;20180;-75
2023/11/21 00:22:43;;;;;;;0.30;0.20;;;8.80;99.90;;;;;;5106825;28;20168;-76
2023/11/21 00:25:09;;;;;;;0.30;0.30;;;8.80;99.90;;;;;;5106779;28;20316;-77
2023/11/21 00:27:38;;;;;;;0.30;0.20;;;8.80;99.90;;;;;;5122541;27;20172;-76
2023/11/21 00:30:05;;;;;;;0.30;0.20;;;8.80;99.90;;;;;;5106886;28;20946;-75
2023/11/21 00:32:31;;;;;;;0.30;0.30;;;8.80;99.90;;;;;;5122467;27;20220;-76
2023/11/21 00:34:57;;;;;;;0.30;0.20;;;8.80;99.90;;;;;;5121293;27;20609;-76
2023/11/21 00:37:23;;;;;;;0.30;0.20;;;8.80;99.90;;;;;;5106450;28;20180;-76
2023/11/21 00:39:49;;;;;;;0.50;0.50;;;8.80;99.90;;;;;;5106513;28;20199;-77
2023/11/21 00:42:15;;;;;;;0.30;0.20;;;8.80;99.90;;;;;;5106977;28;20172;-76
2023/11/21 00:44:40;;;;;;;0.30;0.20;;;8.80;99.90;;;;;;5122078;27;20664;-76
2023/11/21 00:47:07;;;;;;;0.40;0.40;;;8.80;99.90;;;;;;5122359;27;20648;-76
2023/11/21 00:49:33;;;;;;;0.30;0.30;;;8.80;99.90;;;;;;5106314;28;20589;-76
2023/11/21 00:51:59;;;;;;;0.30;0.20;;;8.80;99.90;;;;;;5106407;28;20247;-77
2023/11/21 00:54:25;;;;;;;0.30;0.30;;;8.70;99.90;;;;;;5122082;27;20440;-77
2023/11/21 00:56:50;;;;;;;0.30;0.20;;;8.70;99.90;;;;;;5106385;28;20242;-76
2023/11/21 00:59:16;;;;;;;0.30;0.20;;;8.70;99.90;;;;;;5106193;28;20763;-75
2023/11/21 01:01:42;;;;;;;0.30;0.20;;;8.70;99.90;;;;;;5106149;28;20198;-77
2023/11/21 01:04:08;;;;;;;0.30;0.20;;;8.70;99.90;;;;;;5105223;28;20187;-76
2023/11/21 01:06:34;;;;;;;0.30;0.20;;;8.70;99.90;;;;;;5121668;27;20386;-77
2023/11/21 01:09:00;;;;;;;0.30;0.20;;;8.70;99.90;;;;;;5121877;27;20692;-77
2023/11/21 01:11:26;;;;;;;0.30;0.20;;;8.70;99.90;;;;;;5105848;28;20239;-76
2023/11/21 01:13:53;;;;;;;8.13;7.60;;;8.70;99.90;;;;;;5105834;27;20207;-75
2023/11/21 01:16:19;;;;;;;0.30;0.30;;;8.70;99.90;;;;;;5121393;27;20284;-76
2023/11/21 01:18:44;;;;;;;0.30;0.20;;;8.70;99.90;;;;;;5106124;28;20195;-76
2023/11/21 01:21:10;;;;;;;0.30;0.30;;;8.70;99.90;;;;;;5121711;27;20172;-76
2023/11/21 01:23:36;;;;;;;0.30;0.20;;;8.60;99.90;;;;;;5121775;27;20253;-77
2023/11/21 01:26:03;;;;;;;0.30;0.27;;;8.60;99.90;;;;;;5105872;28;20168;-76
2023/11/21 01:28:28;;;;;;;0.30;0.20;;;8.60;99.90;;;;;;5106448;28;20722;-76
2023/11/21 01:30:56;;;;;;;0.40;0.40;;;8.60;99.90;;;;;;5121045;28;20298;-77
2023/11/21 01:33:24;;;;;;;0.30;0.20;;;8.60;99.90;;;;;;5105940;28;20772;-77
2023/11/21 01:35:50;;;;;;;4.32;3.80;;;8.60;99.90;;;;;;5121247;28;20180;-76
2023/11/21 01:38:17;;;;;;;1.90;1.80;;;8.60;99.90;;;;;;5121257;28;20406;-77
2023/11/21 01:40:43;;;;;;;9.93;9.50;;;8.60;99.90;;;;;;5105456;28;20394;-75
2023/11/21 01:43:09;;;;;;;0.30;0.20;;;8.60;99.90;;;;;;5106117;28;20187;-76
2023/11/21 01:45:35;;;;;;;1.07;1.00;;;8.70;99.90;;;;;;5107355;28;20205;-75
2023/11/21 01:48:02;;;;;;;0.30;0.30;;;8.70;99.90;;;;;;5125841;27;20265;-76
2023/11/21 01:50:28;;;;;;;0.30;0.20;;;8.70;99.90;;;;;;5109848;27;20226;-75
2023/11/21 01:52:54;;;;;;;0.30;0.20;;;8.80;99.90;;;;;;5125495;27;20175;-76
2023/11/21 01:55:20;;;;;;;0.40;0.40;;;8.80;99.90;;;;;;5109526;28;20463;-77
2023/11/21 01:57:46;;;;;;;0.30;0.20;;;8.90;99.90;;;;;;5109781;28;20411;-77
2023/11/21 02:00:16;;;;;;;0.70;0.70;;;8.90;99.90;;;;;;5109698;28;20415;-76
2023/11/21 02:02:49;;;;;;;0.30;0.20;;;8.90;99.90;;;;;;5124922;27;20193;-75
2023/11/21 02:05:19;;;;;;;0.40;0.20;;;8.90;99.90;;;;;;5108866;28;20180;-77
2023/11/21 02:07:49;;;;;;;0.40;0.35;;;8.90;99.90;;;;;;5125603;27;20187;-77
2023/11/21 02:10:15;;;;;;;0.30;0.20;;;8.90;99.90;;;;;;5109511;28;20211;-76
2023/11/21 02:12:42;;;;;;;0.30;0.20;;;8.90;99.90;;;;;;5109349;28;20172;-76
2023/11/21 02:15:14;;;;;;;0.30;0.20;;;8.90;99.90;;;;;;5125029;27;20184;-77
2023/11/21 02:17:43;;;;;;;0.30;0.20;;;8.90;99.90;;;;;;5108958;28;20228;-77
2023/11/21 02:20:15;;;;;;;0.30;0.20;;;8.90;99.90;;;;;;5109610;28;20200;-76
2023/11/21 02:22:41;;;;;;;0.30;0.20;;;8.80;99.90;;;;;;5125213;27;20186;-76
2023/11/21 02:25:08;;;;;;;0.30;0.20;;;8.80;99.90;;;;;;5109392;28;20308;-77
2023/11/21 02:27:33;;;;;;;0.30;0.20;;;8.80;99.90;;;;;;5109169;28;20273;-77
2023/11/21 02:30:00;;;;;;;0.30;0.20;;;8.80;99.90;;;;;;5124592;27;20642;-76
2023/11/21 02:32:26;;;;;;;0.30;0.20;;;8.70;99.90;;;;;;5109124;28;20159;-76
2023/11/21 02:34:54;;;;;;;0.30;0.30;;;8.70;99.90;;;;;;5109006;28;20281;-76
2023/11/21 02:37:20;;;;;;;0.30;0.20;;;8.70;99.90;;;;;;5109064;28;20428;-76
2023/11/21 02:39:46;;;;;;;0.70;0.70;;;8.70;99.90;;;;;;5108796;28;20228;-76
2023/11/21 02:42:11;;;;;;;0.30;0.20;;;8.60;99.90;;;;;;5124508;27;20176;-76
2023/11/21 02:44:37;;;;;;;0.30;0.20;;;8.60;99.90;;;;;;5108806;28;20214;-76
2023/11/21 02:47:04;;;;;;;0.30;0.20;;;8.60;99.90;;;;;;5124220;27;20338;-76
2023/11/21 02:49:30;;;;;;;0.30;0.20;;;8.60;99.90;;;;;;5108712;28;20326;-76
2023/11/21 02:51:56;;;;;;;0.30;0.20;;;8.50;99.90;;;;;;5108241;28;20673;-77
2023/11/21 02:54:22;;;;;;;0.30;0.20;;;8.50;99.90;;;;;;5108570;28;20196;-76
2023/11/21 02:56:49;;;;;;;0.30;0.20;;;8.60;99.90;;;;;;5107985;28;20168;-76
2023/11/21 02:59:15;;;;;;;0.30;0.20;;;8.60;99.90;;;;;;5108266;28;20559;-77
2023/11/21 03:01:41;;;;;;;0.30;0.20;;;8.60;99.90;;;;;;5124093;27;20584;-76
2023/11/21 03:04:07;;;;;;;0.30;0.30;;;8.70;99.90;;;;;;5108202;28;20203;-75
2023/11/21 03:06:33;;;;;;;0.40;0.40;;;8.70;99.90;;;;;;5123868;27;20176;-76
2023/11/21 03:08:59;;;;;;;0.88;0.85;;;8.80;99.90;;;;;;5107132;28;20202;-75
2023/11/21 03:11:25;;;;;;;0.30;0.20;;;8.80;99.90;;;;;;5123721;27;20211;-77
2023/11/21 03:13:51;;;;;;;0.30;0.20;;;8.80;99.90;;;;;;5108108;28;20422;-75
2023/11/21 03:16:19;;;;;;;0.40;0.30;;;8.90;99.90;;;;;;5123639;27;20215;-75
2023/11/21 03:18:44;;;;;;;0.30;0.30;;;8.90;99.90;;;;;;5123876;27;20430;-75
2023/11/21 03:21:12;;;;;;;0.30;0.20;;;8.90;99.90;;;;;;5107836;28;20242;-77
2023/11/21 03:23:37;;;;;;;27.35;10.07;;;8.90;99.90;;;;;;5107829;28;20422;-76
2023/11/21 03:26:04;;;;;;;1.67;1.57;;;8.80;99.90;;;;;;5107729;28;20164;-75
2023/11/21 03:28:30;;;;;;;0.30;0.20;;;8.80;99.90;;;;;;5108014;27;20202;-76
2023/11/21 03:30:56;;;;;;;0.30;0.20;;;8.80;99.90;;;;;;5107441;28;20438;-75
2023/11/21 03:33:22;;;;;;;4.82;4.60;;;8.70;99.90;;;;;;5123664;27;20440;-75
2023/11/21 03:35:49;;;;;;;0.30;0.20;;;8.70;99.90;;;;;;5107938;28;20175;-77
2023/11/21 03:38:15;;;;;;;0.30;0.20;;;8.60;99.90;;;;;;5107586;28;20493;-75
2023/11/21 03:40:41;;;;;;;1.95;1.85;;;8.60;99.90;;;;;;5123346;27;20179;-76
2023/11/21 03:43:07;;;;;;;0.30;0.20;;;8.50;99.90;;;;;;5123528;27;20283;-76
2023/11/21 03:45:33;;;;;;;0.30;0.20;;;8.50;99.90;;;;;;5107401;27;20445;-75
2023/11/21 03:48:01;;;;;;;0.30;0.20;;;8.50;99.90;;;;;;5107735;28;20219;-76
2023/11/21 03:50:28;;;;;;;0.50;0.50;;;8.40;99.90;;;;;;5107582;28;20253;-76
2023/11/21 03:52:54;;;;;;;0.30;0.20;;;8.40;99.90;;;;;;5107638;28;20187;-75
2023/11/21 03:55:19;;;;;;;6.83;6.47;;;8.40;99.90;;;;;;5107003;28;20171;-76
2023/11/21 03:57:45;;;;;;;0.30;0.20;;;8.40;99.90;;;;;;5107488;28;20172;-76
2023/11/21 04:00:11;;;;;;;18.03;16.80;;;8.40;99.90;;;;;;5122906;27;20182;-75
2023/11/21 04:02:37;;;;;;;2.35;2.28;;;8.40;99.90;;;;;;5105710;28;20276;-75
2023/11/21 04:05:03;;;;;;;0.30;0.20;;;8.40;99.90;;;;;;5122857;27;20245;-75
2023/11/21 04:07:29;;;;;;;0.60;0.60;;;8.40;99.90;;;;;;5107245;28;20256;-74
2023/11/21 04:09:54;;;;;;;0.30;0.30;;;8.40;99.90;;;;;;5106148;28;20466;-75
2023/11/21 04:12:20;;;;;;;1.90;1.80;;;8.50;99.90;;;;;;5121841;27;20436;-76
2023/11/21 04:14:46;;;;;;;0.30;0.20;;;8.50;99.90;;;;;;5106979;28;20493;-75
2023/11/21 04:17:11;;;;;;;0.63;0.63;;;8.50;99.90;;;;;;5106984;28;20232;-75
2023/11/21 04:19:37;;;;;;;0.30;0.20;;;8.60;99.90;;;;;;5122591;27;20202;-75
2023/11/21 04:22:04;;;;;;;0.73;0.73;;;8.60;99.90;;;;;;5106919;28;20233;-77
2023/11/21 04:24:29;;;;;;;0.30;0.28;;;8.70;99.90;;;;;;5107137;28;20240;-76
2023/11/21 04:26:55;;;;;;;0.43;0.40;;;8.70;99.90;;;;;;5106747;28;20613;-76
2023/11/21 04:29:21;;;;;;;0.40;0.40;;;8.70;99.90;;;;;;5106753;28;20442;-76
2023/11/21 04:31:48;;;;;;;0.30;0.20;;;8.80;99.90;;;;;;5122207;27;20203;-76
2023/11/21 04:34:15;;;;;;;0.30;0.20;;;8.80;99.90;;;;;;5106478;28;20249;-75
2023/11/21 04:36:40;;;;;;;3.55;3.28;;;8.90;99.90;;;;;;5106597;28;20366;-75
2023/11/21 04:39:06;;;;;;;0.30;0.20;;;8.90;99.90;;;;;;5122294;27;20282;-77
2023/11/21 04:41:32;;;;;;;3.08;2.97;;;8.90;99.90;;;;;;5106800;28;20164;-76
2023/11/21 04:44:00;;;;;;;0.50;0.50;;;9.00;99.90;;;;;;5106514;28;20257;-76
2023/11/21 04:46:26;;;;;;;28.90;10.77;;;9.00;99.90;;;;;;5121998;27;20721;-76
2023/11/21 04:48:52;;;;;;;0.30;0.20;;;9.00;99.90;;;;;;5105035;28;20203;-76
2023/11/21 04:51:17;;;;;;;0.30;0.20;;;9.10;99.90;;;;;;5105612;28;20207;-77
2023/11/21 04:53:43;;;;;;;4.60;4.43;;;9.10;99.90;;;;;;5106275;28;20236;-75
2023/11/21 04:56:09;;;;;;;2.13;2.03;;;9.10;99.90;;;;;;5106266;28;20179;-75
2023/11/21 04:58:35;;;;;;;0.40;0.40;;;9.20;99.90;;;;;;5106385;28;20196;-75
2023/11/21 05:01:01;;;;;;;0.30;0.30;;;9.20;99.90;;;;;;5121569;27;20171;-76
2023/11/21 05:03:26;;;;;;;0.30;0.30;;;9.20;99.90;;;;;;5105931;28;20432;-76
2023/11/21 05:05:52;;;;;;;0.30;0.30;;;9.20;99.90;;;;;;5105853;28;20233;-75
2023/11/21 05:08:20;;;;;;;0.30;0.27;;;9.20;99.90;;;;;;5120903;27;20198;-75
2023/11/21 05:10:45;;;;;;;0.30;0.30;;;9.20;99.90;;;;;;5105434;28;20211;-76
2023/11/21 05:13:11;;;;;;;0.77;0.77;;;9.20;99.90;;;;;;5105855;28;20199;-76
2023/11/21 05:15:39;;;;;;;1.57;1.47;;;9.20;99.90;;;;;;5105610;28;20261;-75
2023/11/21 05:18:05;;;;;;;0.30;0.20;;;9.30;99.90;;;;;;5105883;28;20188;-77
2023/11/21 05:20:30;;;;;;;0.30;0.22;;;9.20;99.90;;;;;;5119810;27;20179;-76
2023/11/21 05:22:56;;;;;;;0.30;0.20;;;9.30;99.90;;;;;;5103540;28;20207;-75
2023/11/21 05:25:22;;;;;;;0.30;0.20;;;9.30;99.90;;;;;;5129034;27;20271;-75
2023/11/21 05:27:48;;;;;;;1.23;1.10;;;9.30;99.90;;;;;;5092832;28;20278;-75
2023/11/21 05:30:14;;;;;;;0.30;0.20;;;9.30;99.90;;;;;;5094981;28;20247;-76
2023/11/21 05:32:42;;;;;;;1.38;1.38;;;9.30;99.90;;;;;;5094409;28;20477;-75
2023/11/21 05:35:11;;;;;;;0.30;0.20;;;9.30;99.90;;;;;;5095006;28;20362;-75
2023/11/21 05:37:41;;;;;;;0.32;0.30;;;9.40;99.90;;;;;;5096608;28;20206;-76
2023/11/21 05:40:07;;;;;;;1.40;1.40;;;9.40;99.90;;;;;;5097252;28;20750;-76
2023/11/21 05:42:34;;;;;;;0.82;0.82;;;9.40;99.90;;;;;;5094664;28;20701;-76
2023/11/21 05:45:09;;;;;;;0.30;0.30;;;9.40;99.90;;;;;;5104653;28;20619;-75
2023/11/21 05:47:36;;;;;;;1.48;1.48;;;9.40;99.90;;;;;;5105450;28;20681;-75
2023/11/21 05:50:02;;;;;;;0.30;0.30;;;9.30;99.90;;;;;;5105537;28;20455;-75
2023/11/21 05:52:28;;;;;;;0.30;0.20;;;9.30;99.90;;;;;;5103337;28;20564;-75
2023/11/21 05:54:54;;;;;;;1.27;1.27;;;9.30;99.90;;;;;;5104250;28;20240;-76
2023/11/21 05:57:19;;;;;;;2.10;2.00;;;9.30;99.90;;;;;;5104909;28;20188;-76
2023/11/21 05:59:45;;;;;;;8.23;4.20;;;9.30;99.90;;;;;;5104215;28;20200;-75
2023/11/21 06:02:11;;;;;;;10.02;9.15;;;9.20;99.90;;;;;;5104450;28;20172;-76
2023/11/21 06:04:37;;;;;;;6.83;6.63;;;9.30;99.90;;;;;;5104986;28;20656;-76
2023/11/21 06:07:03;;;;;;;0.30;0.20;;;9.30;99.90;;;;;;5105000;28;20164;-75
2023/11/21 06:09:28;;;;;;;0.30;0.30;;;9.30;99.90;;;;;;5105198;28;20225;-75
2023/11/21 06:11:54;;;;;;;30.83;28.00;;;9.30;99.90;;;;;;5101933;28;20464;-76
2023/11/21 06:14:21;;;;;;;0.30;0.20;;;9.30;99.90;;;;;;5104327;28;20728;-76
2023/11/21 06:16:47;;;;;;;1.80;1.70;;;9.30;99.90;;;;;;5103233;28;20318;-77
2023/11/21 06:19:13;;;;;;;24.60;23.17;;;9.30;99.90;;;;;;5103503;28;20712;-75
2023/11/21 06:21:38;;;;;;;4.80;4.63;;;9.30;99.90;;;;;;5105228;28;20171;-76
2023/11/21 06:24:04;;;;;;;0.60;0.60;;;9.30;99.90;;;;;;5105023;28;20211;-75
2023/11/21 06:26:31;;;;;;;2.63;2.53;;;9.30;99.90;;;;;;5104468;28;20699;-76
2023/11/21 06:28:57;;;;;;;1.27;1.17;;;9.40;99.90;;;;;;5103125;28;20211;-77
2023/11/21 06:31:22;;;;;;;0.40;0.30;;;9.40;99.90;;;;;;5102364;28;20379;-76
2023/11/21 06:33:49;;;;;;;0.30;0.20;;;9.50;99.90;;;;;;5107993;28;20321;-77
2023/11/21 06:36:15;;;;;;;0.60;0.60;;;9.50;99.90;;;;;;5108543;27;20275;-75
2023/11/21 06:38:41;;;;;;;2.80;2.60;;;9.50;99.90;;;;;;5088795;28;20193;-76
2023/11/21 06:41:07;;;;;;;0.30;0.20;;;9.60;99.90;;;;;;5103471;28;20322;-76
2023/11/21 06:43:33;;;;;;;0.30;0.20;;;9.60;99.90;;;;;;5104631;28;20196;-76
2023/11/21 06:45:58;;;;;;;8.97;2.87;;;9.50;99.90;;;;;;5104803;28;20192;-76
2023/11/21 06:48:24;;;;;;;1.70;1.43;;;9.50;99.90;;;;;;5098383;28;20207;-75
2023/11/21 06:50:52;;;;;;;3.85;3.70;;;9.50;99.90;;;;;;5103739;28;20212;-77
2023/11/21 06:53:17;;;;;;;8.27;7.78;;;9.50;99.90;;;;;;5107208;27;20199;-77
2023/11/21 06:55:43;;;;;;;0.30;0.20;;;9.60;99.90;;;;;;5104448;28;20634;-77
2023/11/21 06:58:08;;;;;;;0.30;0.20;;;9.60;99.90;;;;;;5102779;28;20203;-77
2023/11/21 07:00:34;;;;;;;0.30;0.20;;;9.60;99.90;;;;;;5102597;28;20188;-77
2023/11/21 07:03:00;;;;;;;0.30;0.20;;;9.70;99.90;;;;;;5098698;28;20294;-77
2023/11/21 07:05:25;;;;;;;0.30;0.20;;;9.70;99.90;;;;;;5104843;28;20227;-77
2023/11/21 07:07:53;;;;;;;0.40;0.40;;;9.70;99.90;;;;;;5100924;28;20172;-76
2023/11/21 07:10:19;;;;;;;1.02;1.02;;;9.80;99.90;;;;;;5101777;28;20200;-76
2023/11/21 07:12:45;;;;;;;1.93;1.83;;;9.80;99.90;;;;;;5101369;28;20183;-78
2023/11/21 07:15:11;;;;;;;0.30;0.20;;;9.80;99.90;;;;;;5104372;28;20175;-78
2023/11/21 07:17:37;;;;;;;0.60;0.60;;;9.80;99.90;;;;;;5102902;28;20277;-75
2023/11/21 07:20:03;;;;;;;0.30;0.30;;;9.80;99.90;;;;;;5102692;28;20223;-76
2023/11/21 07:22:29;;;;;;;0.57;0.57;;;9.80;99.90;;;;;;5101240;28;20186;-77
2023/11/21 07:24:58;;;;;;;4.57;4.28;;;9.90;99.90;;;;;;5103325;28;20203;-76
2023/11/21 07:27:24;;;;;;;4.40;2.45;;;9.90;99.90;;;;;;5099356;28;20264;-77
2023/11/21 07:29:49;;;;;;;2.77;2.67;;;9.90;99.90;;;;;;5101605;27;20599;-76
2023/11/21 07:32:15;;;;;;;0.30;0.30;;;10.00;99.90;;;;;;5101790;28;20188;-76
2023/11/21 07:34:41;;;;;;;1.42;1.42;;;10.00;99.90;;;;;;5106316;27;20208;-76
2023/11/21 07:37:08;;;;;;;0.30;0.20;;;10.00;99.90;;;;;;5114192;27;20777;-76
2023/11/21 07:39:36;;;;;;;0.95;0.95;;;10.00;99.90;;;;;;5097803;28;20200;-77
2023/11/21 07:42:02;;;;;;;0.30;0.20;;;10.00;99.90;;;;;;5099810;28;20233;-77
2023/11/21 07:44:28;;;;;;;3.40;3.30;;;10.00;99.90;;;;;;5099105;28;20199;-76
2023/11/21 07:46:57;;;;;;;0.30;0.20;;;10.10;99.90;;;;;;5102969;28;20209;-77
2023/11/21 07:49:23;;;;;;;0.30;0.20;;;10.10;99.90;;;;;;5102398;28;20239;-76
2023/11/21 07:51:49;;;;;;;0.63;0.63;;;10.10;99.90;;;;;;5103651;28;20265;-76
2023/11/21 07:54:15;;;;;;;2.77;2.50;;;10.10;99.90;;;;;;5102907;28;20669;-76
2023/11/21 07:56:42;;;;;;;0.30;0.20;;;10.10;99.90;;;;;;5106688;28;20453;-76
2023/11/21 07:59:08;;;;;;;2.03;1.55;;;10.10;99.90;;;;;;5110493;27;20209;-76
2023/11/21 08:01:33;;;;;;;0.30;0.20;;;10.20;99.90;;;;;;5089421;28;20185;-77
2023/11/21 08:04:03;;;;;;;0.30;0.20;;;10.20;99.90;;;;;;5088723;28;20293;-76
2023/11/21 08:06:30;;;;;;;3.17;3.08;;;10.20;99.90;;;;;;5100182;28;20183;-77
2023/11/21 08:08:56;;;;;;;0.30;0.20;;;10.20;99.90;;;;;;5100049;28;20369;-77
2023/11/21 08:11:22;;;;;;;0.30;0.30;;;10.20;99.90;;;;;;5099102;28;20209;-76
2023/11/21 08:13:47;;;;;;;0.30;0.20;;;10.20;99.90;;;;;;5098180;27;20760;-77
2023/11/21 08:16:14;;;;;;;1.40;1.40;;;10.30;99.90;;;;;;5100714;28;20265;-77
2023/11/21 08:18:41;;;;;;;1.38;1.27;;;10.30;99.90;;;;;;5098853;28;20222;-76
2023/11/21 08:21:07;;;;;;;11.32;10.73;;;10.30;99.90;;;;;;5100903;28;20187;-76
2023/11/21 08:23:34;;;;;;;0.38;0.20;;;10.40;99.90;;;;;;5098491;28;20894;-76
2023/11/21 08:26:00;;;;;;;0.30;0.20;;;10.40;99.90;;;;;;5101646;28;20207;-76
2023/11/21 08:28:26;;;;;;;0.90;0.90;;;10.40;99.90;;;;;;5095394;28;20257;-76
2023/11/21 08:30:54;;;;;;;5.13;4.93;;;10.40;99.90;;;;;;5113496;27;21240;-76
2023/11/21 08:33:20;;;;;;;0.30;0.30;;;10.40;99.90;;;;;;5095642;28;21224;-77
2023/11/21 08:35:45;;;;;;;0.97;0.97;;;10.50;99.90;;;;;;5100137;28;20263;-76
2023/11/21 08:38:12;;;;;;;1.90;1.90;;;10.50;99.90;;;;;;5097383;28;20430;-76
2023/11/21 08:40:38;;;;;;;0.30;0.20;;;10.60;99.90;;;;;;5097379;28;20240;-75
2023/11/21 08:43:07;;;;;;;0.30;0.20;;;10.70;99.90;;;;;;5102692;27;20617;-76
2023/11/21 08:45:34;;;;;;;0.95;0.95;;;10.80;99.90;;;;;;5096839;28;20570;-77
2023/11/21 08:48:00;;;;;;;0.30;0.20;;;10.80;99.90;;;;;;5100780;28;20202;-77
2023/11/21 08:50:26;;;;;;;0.30;0.20;;;10.90;99.90;;;;;;5091055;28;20208;-77
2023/11/21 08:52:52;;;;;;;0.30;0.20;;;10.90;99.90;;;;;;5100906;28;20749;-75
2023/11/21 08:55:19;;;;;;;0.30;0.20;;;10.90;99.90;;;;;;5096534;28;20664;-77
2023/11/21 08:57:46;;;;;;;1.27;1.27;;;10.90;99.90;;;;;;5100653;28;20910;-77
2023/11/21 09:00:16;;;;;;;0.30;0.30;;;11.00;99.90;;;;;;5100182;28;20184;-75
2023/11/21 09:02:43;;;;;;;0.30;0.20;;;11.00;99.90;;;;;;5100793;28;20370;-76
2023/11/21 09:05:10;;;;;;;0.30;0.20;;;11.00;99.90;;;;;;5099625;28;20672;-77
2023/11/21 09:07:36;;;;;;;0.30;0.20;;;11.10;99.90;;;;;;5099231;28;20187;-77
2023/11/21 09:10:03;;;;;;;0.30;0.20;;;11.10;99.90;;;;;;5099047;28;20180;-76
2023/11/21 09:12:28;;;;;;;0.30;0.20;;;11.10;99.90;;;;;;5098342;28;20183;-77
2023/11/21 09:14:54;;;;;;;0.30;0.20;;;11.20;99.90;;;;;;5094807;28;20218;-77
2023/11/21 09:17:20;;;;;;;0.30;0.20;;;11.20;99.90;;;;;;5090465;28;20227;-77
2023/11/21 09:19:49;;;;;;;0.30;0.20;;;11.20;99.90;;;;;;5086688;28;20306;-77
2023/11/21 09:22:16;;;;;;;0.30;0.20;;;11.20;99.90;;;;;;5089791;28;20531;-78
2023/11/21 09:24:42;;;;;;;0.30;0.20;;;11.30;99.90;;;;;;5096795;28;20214;-78
2023/11/21 09:27:09;;;;;;;0.30;0.20;;;11.30;99.90;;;;;;5095362;28;20184;-78
2023/11/21 09:29:35;;;;;;;1.05;1.05;;;11.30;99.90;;;;;;5091184;28;20521;-77
2023/11/21 09:32:01;;;;;;;0.30;0.20;;;11.30;99.90;;;;;;5095432;28;20478;-78
2023/11/21 09:34:27;;;;;;;0.30;0.20;;;11.30;99.90;;;;;;5091488;28;20725;-78
2023/11/21 09:36:53;;;;;;;1.42;1.00;;;11.30;99.90;;;;;;5095841;28;20506;-77
2023/11/21 09:39:19;;;;;;;0.77;0.75;;;11.40;99.90;;;;;;5093275;28;20203;-78
2023/11/21 09:42:05;;;;;;;1.90;1.77;;;11.40;99.90;;;;;;5093344;28;20176;-77
2023/11/21 09:44:51;;;;;;;0.30;0.20;;;11.40;99.90;;;;;;5089436;28;21220;-76
2023/11/21 09:47:18;;;;;;;0.30;0.20;;;11.40;99.90;;;;;;5094036;28;20223;-75
2023/11/21 09:49:52;;;;;;;0.30;0.20;;;11.50;99.90;;;;;;5097282;28;20848;-76
2023/11/21 09:52:27;;;;;;;0.30;0.20;;;11.50;99.90;;;;;;5099653;28;20256;-77
2023/11/21 09:54:56;;;;;;;0.30;0.20;;;11.50;99.90;;;;;;5091262;28;20454;-77
2023/11/21 09:57:23;;;;;;;0.95;0.88;;;11.50;99.90;;;;;;5096206;28;20176;-79
2023/11/21 09:59:58;;;;;;;0.30;0.20;;;11.60;99.90;;;;;;5094172;28;20257;-77
2023/11/21 10:02:32;;;;;;;0.30;0.20;;;11.60;99.90;;;;;;5097163;28;20187;-77
2023/11/21 10:04:59;;;;;;;0.30;0.20;;;11.60;99.90;;;;;;5089760;28;20233;-79
2023/11/21 10:07:26;;;;;;;0.60;0.60;;;11.60;99.90;;;;;;5099699;28;20172;-78
2023/11/21 10:09:53;;;;;;;0.30;0.30;;;11.60;99.90;;;;;;5119104;27;20208;-77
2023/11/21 10:12:21;;;;;;;0.30;0.20;;;11.60;99.90;;;;;;5101975;28;20188;-77
2023/11/21 10:14:52;;;;;;;0.30;0.20;;;11.60;99.90;;;;;;5115924;27;20199;-77
2023/11/21 10:17:21;;;;;;;0.30;0.20;;;11.70;99.90;;;;;;5102791;28;20234;-77
2023/11/21 10:19:50;;;;;;;0.30;0.20;;;11.70;99.90;;;;;;5100207;28;20234;-79
2023/11/21 10:22:17;;;;;;;0.30;0.20;;;11.70;99.90;;;;;;5099879;28;20223;-76
2023/11/21 10:24:43;;;;;;;0.30;0.30;;;11.70;99.90;;;;;;5102913;27;20231;-77
2023/11/21 10:27:09;;;;;;;0.30;0.30;;;11.80;99.90;;;;;;5100042;28;20191;-76
2023/11/21 10:29:35;;;;;;;0.30;0.20;;;11.70;99.90;;;;;;5105451;28;20477;-77
2023/11/21 10:32:02;;;;;;;0.30;0.20;;;11.80;99.90;;;;;;5101340;28;20538;-78
2023/11/21 10:34:28;;;;;;;0.30;0.20;;;11.80;99.90;;;;;;5119159;27;20212;-78
2023/11/21 10:36:57;;;;;;;0.30;0.20;;;11.80;99.90;;;;;;5105321;28;20168;-77
2023/11/21 10:39:27;;;;;;;0.30;0.20;;;11.80;99.90;;;;;;5103864;28;20203;-78
2023/11/21 10:41:54;;;;;;;0.30;0.20;;;11.80;99.90;;;;;;5118112;27;20699;-78
2023/11/21 10:44:21;;;;;;;0.30;0.20;;;11.90;99.90;;;;;;5105940;28;20210;-78
2023/11/21 10:46:51;;;;;;;0.30;0.20;;;11.90;99.90;;;;;;5105469;28;20233;-76
2023/11/21 10:49:20;;;;;;;0.30;0.20;;;11.90;99.90;;;;;;5106275;28;20282;-76
2023/11/21 10:51:48;;;;;;;0.30;0.20;;;11.90;99.90;;;;;;5106368;28;20239;-78
2023/11/21 10:54:18;;;;;;;0.30;0.20;;;11.90;99.90;;;;;;5104749;28;20214;-77
2023/11/21 10:56:45;;;;;;;0.30;0.20;;;11.90;99.90;;;;;;5104392;28;20183;-76
2023/11/21 10:59:14;;;;;;;0.30;0.20;;;11.90;99.90;;;;;;5091416;28;20251;-78
2023/11/21 11:01:44;;;;;;;2.97;2.75;;;11.90;99.90;;;;;;5094233;28;20504;-78
2023/11/21 11:04:16;;;;;;;0.50;0.50;;;11.90;99.90;;;;;;5100708;28;20772;-75
2023/11/21 11:06:43;;;;;;;0.43;0.40;;;11.90;99.90;;;;;;5094567;28;21032;-76
2023/11/21 11:09:13;;;;;;;0.30;0.20;;;12.00;99.90;;;;;;5098756;28;20547;-75
2023/11/21 11:11:43;;;;;;;0.30;0.30;;;12.00;99.90;;;;;;5111092;27;20491;-77
2023/11/21 11:14:12;;;;;;;0.30;0.20;;;12.00;99.90;;;;;;5098461;28;20452;-76
2023/11/21 11:16:45;;;;;;;0.93;0.90;;;12.00;99.90;;;;;;5094165;28;20455;-76
2023/11/21 11:19:12;;;;;;;0.30;0.20;;;12.00;99.90;;;;;;5097470;28;20995;-76
2023/11/21 11:22:19;;;;;;;0.30;0.20;;;12.00;99.90;;;;;;5102613;27;20438;-76
2023/11/21 11:25:29;;;;;;;0.30;0.20;;;12.00;99.90;;;;;;5102239;27;20459;-76
2023/11/21 11:28:08;;;;;;;0.30;0.20;;;12.00;99.90;;;;;;5098716;28;20463;-78
2023/11/21 11:30:47;;;;;;;0.30;0.20;;;12.00;99.90;;;;;;5093534;28;20464;-77
2023/11/21 11:33:41;;;;;;;0.30;0.20;;;12.00;99.90;;;;;;5092364;28;20984;-77
2023/11/21 11:36:34;;;;;;;0.30;0.20;;;12.00;99.90;;;;;;5092909;28;20455;-76
2023/11/21 11:39:01;;;;;;;0.30;0.20;;;12.00;99.90;;;;;;5088238;28;20853;-76
2023/11/21 11:41:32;;;;;;;0.30;0.20;;;12.10;99.90;;;;;;5092149;27;20413;-76
2023/11/21 11:43:58;;;;;;;0.30;0.20;;;12.10;99.90;;;;;;5091547;28;20479;-77
2023/11/21 11:46:46;;;;;;;0.30;0.20;;;12.10;99.90;;;;;;5093225;28;20396;-76
2023/11/21 11:49:25;;;;;;;0.30;0.30;;;12.10;99.90;;;;;;5098189;28;20452;-78
2023/11/21 11:52:29;;;;;;;0.30;0.20;;;12.10;99.90;;;;;;5090428;28;20628;-76
2023/11/21 11:54:55;;;;;;;0.30;0.20;;;12.10;99.90;;;;;;5091249;28;20720;-76
2023/11/21 11:57:24;;;;;;;1.17;1.17;;;12.10;99.90;;;;;;5084685;28;20907;-77
2023/11/21 12:00:24;;;;;;;0.30;0.20;;;12.10;99.90;;;;;;5087979;28;20697;-76
2023/11/21 12:02:58;;;;;;;0.30;0.20;;;12.10;99.90;;;;;;5097531;28;20741;-76
2023/11/21 12:05:29;;;;;;;0.30;0.20;;;12.10;99.90;;;;;;5092554;27;20676;-77
2023/11/21 12:07:57;;;;;;;0.30;0.20;;;12.10;99.90;;;;;;5093656;28;20432;-75
2023/11/21 12:10:30;;;;;;;1.80;1.70;;;12.10;99.90;;;;;;5093807;28;20471;-78
2023/11/21 12:12:58;;;;;;;6.73;5.03;;;12.10;99.90;;;;;;5089571;28;20492;-77
2023/11/21 12:15:25;;;;;;;0.30;0.20;;;12.10;99.90;;;;;;5125296;27;20432;-77
2023/11/21 12:17:51;;;;;;;6.93;6.63;;;12.10;99.90;;;;;;5100158;28;21250;-77
2023/11/21 12:20:23;;;;;;;19.47;18.40;;;12.10;99.90;;;;;;5100445;28;20493;-76
2023/11/21 12:22:56;;;;;;;3.40;3.20;;;12.10;99.90;;;;;;5092001;28;21039;-76
2023/11/21 12:25:29;;;;;;;0.30;0.20;;;12.10;99.90;;;;;;5093590;28;20443;-76
2023/11/21 12:27:55;;;;;;;0.40;0.40;;;12.10;99.90;;;;;;5092975;28;20400;-77
2023/11/21 12:30:24;;;;;;;0.30;0.20;;;12.10;99.90;;;;;;5094877;27;20227;-76
2023/11/21 12:32:52;;;;;;;0.30;0.20;;;12.10;99.90;;;;;;5089640;28;20438;-76
2023/11/21 12:35:19;;;;;;;0.30;0.30;;;12.20;99.90;;;;;;5096844;28;20536;-75
2023/11/21 12:37:46;;;;;;;0.30;0.20;;;12.20;99.90;;;;;;5097638;28;20426;-76
2023/11/21 12:40:15;;;;;;;0.30;0.20;;;12.20;99.90;;;;;;5097394;28;20428;-76
2023/11/21 12:42:48;;;;;;;0.30;0.20;;;12.10;99.90;;;;;;5095586;27;20186;-76
2023/11/21 12:45:21;;;;;;;0.30;0.20;;;12.10;99.90;;;;;;5102207;28;20424;-76
2023/11/21 12:47:51;;;;;;;0.30;0.20;;;12.10;99.90;;;;;;5102737;27;20607;-78
2023/11/21 12:50:23;;;;;;;1.43;1.33;;;12.10;99.90;;;;;;5092393;28;20459;-76
2023/11/21 12:52:53;;;;;;;0.30;0.30;;;12.10;99.90;;;;;;5097618;28;21118;-76
2023/11/21 12:55:21;;;;;;;0.30;0.20;;;12.10;99.90;;;;;;5096983;28;20687;-76